createdAt,value
2019-02-16T00:00:28.674Z,99.90
2019-02-16T00:02:57.182Z,99.90
2019-02-16T00:05:25.737Z,99.90
2019-02-16T00:07:54.151Z,99.90
2019-02-16T00:10:21.875Z,99.90
2019-02-16T00:12:49.551Z,99.90
2019-02-16T00:15:17.108Z,99.90
2019-02-16T00:17:45.304Z,99.90
2019-02-16T00:20:13.282Z,99.90
2019-02-16T00:22:41.611Z,99.90
2019-02-16T00:25:09.250Z,99.90
2019-02-16T00:27:37.188Z,99.90
2019-02-16T00:30:04.924Z,99.90
2019-02-16T00:32:33.209Z,99.90
2019-02-16T00:35:01.283Z,99.90
2019-02-16T00:37:28.836Z,99.90
2019-02-16T00:39:56.626Z,99.90
2019-02-16T00:42:25.021Z,99.90
2019-02-16T00:44:52.945Z,99.90
2019-02-16T00:47:20.577Z,99.90
2019-02-16T00:49:48.709Z,99.90
2019-02-16T00:52:16.706Z,99.90
2019-02-16T00:54:44.639Z,99.90
2019-02-16T00:57:18.222Z,99.90
2019-02-16T00:59:46.123Z,99.90
2019-02-16T01:02:13.708Z,99.90
2019-02-16T01:04:41.667Z,99.90
2019-02-16T01:07:09.234Z,99.90
2019-02-16T01:09:37.348Z,99.90
2019-02-16T01:12:05.749Z,99.90
2019-02-16T01:14:33.402Z,99.90
2019-02-16T01:17:02.344Z,99.90
2019-02-16T01:19:29.937Z,99.90
2019-02-16T01:21:57.870Z,99.90
2019-02-16T01:24:26.407Z,99.90
2019-02-16T01:26:54.651Z,99.90
2019-02-16T01:29:23.649Z,99.90
2019-02-16T01:31:51.673Z,99.90
2019-02-16T01:34:19.270Z,99.90
2019-02-16T01:36:48.427Z,99.90
2019-02-16T01:39:16.484Z,99.90
2019-02-16T01:41:44.838Z,99.90
2019-02-16T01:44:13.067Z,99.90
2019-02-16T01:46:41.053Z,99.90
2019-02-16T01:49:08.657Z,99.90
2019-02-16T01:51:36.677Z,99.90
2019-02-16T01:54:05.195Z,99.90
2019-02-16T01:56:33.232Z,99.90
2019-02-16T01:59:01.108Z,99.90
2019-02-16T02:01:28.696Z,99.90
2019-02-16T02:03:56.871Z,99.90
2019-02-16T02:06:24.478Z,99.90
2019-02-16T02:08:52.818Z,99.90
2019-02-16T02:11:23.016Z,99.90
2019-02-16T02:13:50.557Z,99.90
2019-02-16T02:16:18.143Z,99.90
2019-02-16T02:18:46.514Z,99.90
2019-02-16T02:21:14.882Z,99.90
2019-02-16T02:23:43.766Z,99.90
2019-02-16T02:26:11.596Z,99.90
2019-02-16T02:28:42.040Z,99.90
2019-02-16T02:33:54.607Z,99.90
2019-02-16T02:36:22.449Z,99.90
2019-02-16T02:38:50.032Z,99.90
2019-02-16T02:41:18.038Z,99.90
2019-02-16T02:43:45.638Z,99.90
2019-02-16T02:46:13.199Z,99.90
2019-02-16T02:48:40.863Z,99.90
2019-02-16T02:51:08.417Z,99.90
2019-02-16T02:53:36.295Z,99.90
2019-02-16T02:56:04.128Z,99.90
2019-02-16T02:58:31.747Z,99.90
2019-02-16T03:00:59.579Z,99.90
2019-02-16T03:03:27.711Z,99.90
2019-02-16T03:05:55.599Z,99.90
2019-02-16T03:08:23.549Z,99.90
2019-02-16T03:10:51.111Z,99.90
2019-02-16T03:13:19.032Z,99.90
2019-02-16T03:15:46.943Z,99.90
2019-02-16T03:18:14.562Z,99.90
2019-02-16T03:20:42.150Z,99.90
2019-02-16T03:23:17.155Z,99.90
2019-02-16T03:26:03.930Z,99.90
2019-02-16T03:28:58.553Z,99.90
2019-02-16T03:32:11.263Z,99.90
2019-02-16T03:35:30.098Z,99.90
2019-02-16T03:38:22.216Z,99.90
2019-02-16T03:40:49.835Z,99.90
2019-02-16T03:43:17.985Z,99.90
2019-02-16T03:45:46.043Z,99.90
2019-02-16T03:48:13.663Z,99.90
2019-02-16T03:50:41.634Z,99.90
2019-02-16T03:53:09.835Z,99.90
2019-02-16T03:55:37.587Z,99.90
2019-02-16T03:58:05.498Z,99.90
2019-02-16T04:00:33.088Z,99.90
2019-02-16T04:03:01.029Z,99.90
2019-02-16T04:05:28.697Z,99.90
2019-02-16T04:07:56.563Z,99.90
2019-02-16T04:10:24.106Z,99.90
2019-02-16T04:12:53.138Z,99.90
2019-02-16T04:15:22.324Z,99.90
2019-02-16T04:17:50.255Z,99.90
2019-02-16T04:20:18.359Z,99.90
2019-02-16T04:22:46.174Z,99.90
2019-02-16T04:25:13.903Z,99.90
2019-02-16T04:27:41.587Z,99.90
2019-02-16T04:30:09.563Z,99.90
2019-02-16T04:32:37.878Z,99.90
2019-02-16T04:35:05.458Z,99.90
2019-02-16T04:37:33.105Z,99.90
2019-02-16T04:40:01.172Z,99.90
2019-02-16T04:42:28.854Z,99.90
2019-02-16T04:44:56.698Z,99.90
2019-02-16T04:47:25.605Z,99.90
2019-02-16T04:49:53.443Z,99.90
2019-02-16T04:52:21.019Z,99.90
2019-02-16T04:54:48.863Z,99.90
2019-02-16T04:57:17.317Z,99.90
2019-02-16T04:59:44.859Z,99.90
2019-02-16T05:02:12.619Z,99.90
2019-02-16T05:04:41.277Z,99.90
2019-02-16T05:07:09.176Z,99.90
2019-02-16T05:09:36.768Z,99.90
2019-02-16T05:12:04.771Z,99.90
2019-02-16T05:14:32.625Z,99.90
2019-02-16T05:17:00.265Z,99.90
2019-02-16T05:19:27.846Z,99.90
2019-02-16T05:21:57.069Z,99.90
2019-02-16T05:24:24.711Z,99.90
2019-02-16T05:26:53.936Z,99.90
2019-02-16T05:29:22.232Z,99.90
2019-02-16T05:31:50.114Z,99.90
2019-02-16T05:34:18.376Z,99.90
2019-02-16T05:36:45.914Z,99.90
2019-02-16T05:39:13.934Z,99.90
2019-02-16T05:41:41.467Z,99.90
2019-02-16T05:44:18.492Z,99.90
2019-02-16T05:46:46.099Z,99.90
2019-02-16T05:49:13.729Z,99.90
2019-02-16T05:51:41.432Z,99.90
2019-02-16T05:54:09.317Z,99.90
2019-02-16T05:56:36.878Z,99.90
2019-02-16T05:59:04.598Z,99.90
2019-02-16T06:01:32.729Z,99.90
2019-02-16T06:04:00.401Z,99.90
2019-02-16T06:06:47.407Z,99.90
2019-02-16T06:09:15.052Z,99.90
2019-02-16T06:11:43.091Z,99.90
2019-02-16T06:14:11.292Z,99.90
2019-02-16T06:16:39.601Z,99.90
2019-02-16T06:19:07.202Z,99.90
2019-02-16T06:21:34.832Z,99.90
2019-02-16T06:24:02.944Z,99.90
2019-02-16T06:26:30.618Z,99.90
2019-02-16T06:28:58.535Z,99.90
2019-02-16T06:31:27.079Z,99.90
2019-02-16T06:33:55.115Z,99.90
2019-02-16T06:36:36.905Z,99.90
2019-02-16T06:39:05.242Z,99.90
2019-02-16T06:41:33.147Z,99.90
2019-02-16T06:44:00.779Z,99.90
2019-02-16T06:46:28.780Z,99.90
2019-02-16T06:48:57.031Z,99.90
2019-02-16T06:51:24.571Z,99.90
2019-02-16T06:53:52.745Z,99.90
2019-02-16T06:56:43.035Z,99.90
2019-02-16T06:59:10.921Z,99.90
2019-02-16T07:01:39.017Z,99.90
2019-02-16T07:04:06.846Z,99.90
2019-02-16T07:06:34.792Z,99.90
2019-02-16T07:09:04.288Z,99.90
2019-02-16T07:11:32.284Z,99.90
2019-02-16T07:13:59.815Z,99.90
2019-02-16T07:16:49.779Z,99.90
2019-02-16T07:19:38.409Z,99.90
2019-02-16T07:22:06.065Z,99.90
2019-02-16T07:24:35.863Z,99.90
2019-02-16T07:27:04.006Z,99.90
2019-02-16T07:29:31.769Z,99.90
2019-02-16T07:31:59.485Z,99.90
2019-02-16T07:34:27.561Z,99.90
2019-02-16T07:36:55.201Z,99.90
2019-02-16T07:39:22.775Z,99.90
2019-02-16T07:41:50.651Z,99.90
2019-02-16T07:44:32.972Z,99.90
2019-02-16T07:47:08.363Z,99.90
2019-02-16T07:49:46.510Z,99.90
2019-02-16T07:52:37.292Z,99.90
2019-02-16T07:55:14.072Z,99.90
2019-02-16T07:57:47.293Z,99.90
2019-02-16T08:00:53.944Z,99.90
2019-02-16T08:03:47.298Z,99.90
2019-02-16T08:06:40.929Z,99.90
2019-02-16T08:09:28.397Z,99.90
2019-02-16T08:12:14.191Z,99.90
2019-02-16T08:15:26.599Z,99.90
2019-02-16T08:18:16.403Z,99.90
2019-02-16T08:21:09.407Z,99.90
2019-02-16T08:23:59.357Z,99.90
2019-02-16T08:26:48.896Z,99.90
2019-02-16T08:29:43.908Z,99.90
2019-02-16T08:32:22.716Z,99.90
2019-02-16T08:35:04.863Z,99.90
2019-02-16T08:37:58.352Z,99.90
2019-02-16T08:40:35.998Z,99.90
2019-02-16T08:43:25.966Z,99.90
2019-02-16T08:46:12.090Z,99.90
2019-02-16T08:48:56.572Z,99.90
2019-02-16T08:51:42.451Z,99.90
2019-02-16T08:54:36.262Z,99.90
2019-02-16T08:57:32.284Z,99.90
2019-02-16T09:00:31.109Z,99.80
2019-02-16T09:03:24.548Z,99.30
2019-02-16T09:06:17.716Z,99.80
2019-02-16T09:09:00.781Z,99.60
2019-02-16T09:11:50.533Z,99.30
2019-02-16T09:14:40.317Z,98.80
2019-02-16T09:17:39.203Z,97.80
2019-02-16T09:20:24.727Z,98.60
2019-02-16T09:23:05.122Z,96.60
2019-02-16T09:25:39.818Z,96.10
2019-02-16T09:28:17.695Z,97.00
2019-02-16T09:30:51.842Z,95.50
2019-02-16T09:33:44.676Z,92.80
2019-02-16T09:36:19.063Z,94.40
2019-02-16T09:39:12.049Z,93.50
2019-02-16T09:41:59.002Z,92.00
2019-02-16T09:44:49.151Z,92.60
2019-02-16T09:47:45.091Z,92.50
2019-02-16T09:50:37.599Z,90.80
2019-02-16T09:53:29.516Z,88.60
2019-02-16T09:56:15.288Z,90.00
2019-02-16T09:59:08.492Z,88.70
2019-02-16T10:02:13.658Z,86.70
2019-02-16T10:05:08.401Z,84.20
2019-02-16T10:08:02.655Z,82.80
2019-02-16T10:10:42.860Z,84.50
2019-02-16T10:13:47.862Z,82.80
2019-02-16T10:16:31.114Z,79.70
2019-02-16T10:19:06.896Z,77.90
2019-02-16T10:21:50.129Z,76.10
2019-02-16T10:24:35.852Z,75.50
2019-02-16T10:27:21.079Z,75.30
2019-02-16T10:30:06.824Z,75.10
2019-02-16T10:32:46.209Z,72.90
2019-02-16T10:35:48.353Z,71.40
2019-02-16T10:38:33.945Z,70.50
2019-02-16T10:41:20.612Z,73.50
2019-02-16T10:44:05.009Z,73.10
2019-02-16T10:46:55.046Z,72.10
2019-02-16T10:49:55.646Z,72.80
2019-02-16T10:52:46.824Z,70.00
2019-02-16T10:55:32.515Z,68.40
2019-02-16T10:58:12.637Z,69.40
2019-02-16T11:00:50.183Z,68.00
2019-02-16T11:03:37.907Z,67.90
2019-02-16T11:06:16.085Z,65.70
2019-02-16T11:08:53.483Z,64.20
2019-02-16T11:11:52.367Z,64.60
2019-02-16T11:14:45.489Z,64.40
2019-02-16T11:17:32.697Z,63.00
2019-02-16T11:20:14.750Z,61.50
2019-02-16T11:23:04.805Z,61.80
2019-02-16T11:25:45.315Z,63.00
2019-02-16T11:28:38.107Z,58.90
2019-02-16T11:31:37.104Z,57.70
2019-02-16T11:34:30.284Z,56.90
2019-02-16T11:37:23.341Z,58.10
2019-02-16T11:40:16.413Z,57.80
2019-02-16T11:43:06.220Z,56.60
2019-02-16T11:45:50.068Z,57.90
2019-02-16T11:48:37.988Z,54.80
2019-02-16T11:51:15.776Z,54.00
2019-02-16T11:54:05.873Z,54.50
2019-02-16T11:56:55.588Z,54.60
2019-02-16T11:59:45.448Z,54.00
2019-02-16T12:02:39.994Z,54.20
2019-02-16T12:05:25.742Z,51.90
2019-02-16T12:08:11.183Z,52.70
2019-02-16T12:11:13.563Z,51.80
2019-02-16T12:13:55.563Z,48.70
2019-02-16T12:16:54.737Z,48.60
2019-02-16T12:19:30.395Z,48.60
2019-02-16T12:22:21.571Z,47.90
2019-02-16T12:25:06.053Z,47.50
2019-02-16T12:28:04.479Z,46.60
2019-02-16T12:30:55.642Z,47.60
2019-02-16T12:33:29.240Z,46.60
2019-02-16T12:36:09.789Z,46.20
2019-02-16T12:38:46.714Z,46.30
2019-02-16T12:41:39.731Z,43.00
2019-02-16T12:44:25.575Z,44.80
2019-02-16T12:47:08.089Z,44.10
2019-02-16T12:49:53.788Z,44.80
2019-02-16T12:52:43.606Z,44.50
2019-02-16T12:55:39.543Z,45.10
2019-02-16T12:58:13.383Z,45.00
2019-02-16T13:00:51.056Z,42.40
2019-02-16T13:03:36.442Z,45.60
2019-02-16T13:06:14.658Z,43.60
2019-02-16T13:08:46.774Z,45.00
2019-02-16T13:11:33.814Z,43.80
2019-02-16T13:14:20.673Z,44.90
2019-02-16T13:17:10.627Z,42.60
2019-02-16T13:19:46.411Z,41.30
2019-02-16T13:22:33.478Z,40.70
2019-02-16T13:25:08.018Z,40.30
2019-02-16T13:27:45.490Z,40.60
2019-02-16T13:30:45.044Z,41.10
2019-02-16T13:33:37.896Z,41.60
2019-02-16T13:36:28.593Z,42.70
2019-02-16T13:39:16.887Z,41.00
2019-02-16T13:42:03.977Z,38.60
2019-02-16T13:44:51.656Z,40.10
2019-02-16T13:47:32.734Z,40.90
2019-02-16T13:50:11.823Z,39.40
2019-02-16T13:53:05.835Z,36.70
2019-02-16T13:55:52.186Z,36.70
2019-02-16T13:58:38.809Z,35.90
2019-02-16T14:01:31.660Z,36.40
2019-02-16T14:04:17.126Z,34.50
2019-02-16T14:06:59.458Z,35.10
2019-02-16T14:09:38.963Z,35.90
2019-02-16T14:12:34.930Z,35.20
2019-02-16T14:15:29.128Z,36.10
2019-02-16T14:17:56.728Z,37.40
2019-02-16T14:20:24.569Z,37.00
2019-02-16T14:22:52.099Z,37.30
2019-02-16T14:25:27.971Z,39.60
2019-02-16T14:27:55.492Z,37.80
2019-02-16T14:30:23.089Z,37.30
2019-02-16T14:32:50.669Z,37.80
2019-02-16T14:35:18.207Z,37.50
2019-02-16T14:37:57.094Z,38.50
2019-02-16T14:40:29.676Z,37.70
2019-02-16T14:42:57.237Z,35.90
2019-02-16T14:45:25.077Z,36.00
2019-02-16T14:47:52.642Z,37.20
2019-02-16T14:50:20.185Z,38.60
2019-02-16T14:52:48.151Z,36.80
2019-02-16T14:55:15.673Z,35.70
2019-02-16T14:57:43.198Z,35.40
2019-02-16T15:00:10.998Z,36.50
2019-02-16T15:02:38.817Z,36.40
2019-02-16T15:05:06.772Z,38.90
2019-02-16T15:07:34.650Z,39.30
2019-02-16T15:10:02.190Z,37.80
2019-02-16T15:12:29.860Z,37.60
2019-02-16T15:14:57.795Z,38.80
2019-02-16T15:17:26.832Z,43.90
2019-02-16T15:19:57.553Z,48.70
2019-02-16T15:22:25.364Z,49.60
2019-02-16T15:24:53.078Z,51.40
2019-02-16T15:27:20.661Z,50.80
2019-02-16T15:29:49.137Z,49.90
2019-02-16T15:32:17.042Z,47.80
2019-02-16T15:34:45.354Z,47.20
2019-02-16T15:37:13.960Z,45.80
2019-02-16T15:39:41.847Z,44.20
2019-02-16T15:42:09.739Z,44.30
2019-02-16T15:44:37.206Z,44.00
2019-02-16T15:47:05.142Z,43.50
2019-02-16T15:49:32.679Z,43.20
2019-02-16T15:52:01.482Z,43.10
2019-02-16T15:54:29.160Z,43.50
2019-02-16T15:56:57.396Z,42.60
2019-02-16T15:59:24.927Z,43.90
2019-02-16T16:01:52.551Z,42.70
2019-02-16T16:04:21.584Z,44.00
2019-02-16T16:06:49.414Z,46.40
2019-02-16T16:09:31.900Z,47.10
2019-02-16T16:12:19.015Z,49.40
2019-02-16T16:14:52.996Z,53.20
2019-02-16T16:17:36.865Z,57.50
2019-02-16T16:20:41.844Z,59.90
2019-02-16T16:23:27.013Z,63.10
2019-02-16T16:26:19.054Z,64.60
2019-02-16T16:29:07.042Z,67.20
2019-02-16T16:31:45.276Z,68.40
2019-02-16T16:34:41.199Z,69.60
2019-02-16T16:37:33.124Z,71.30
2019-02-16T16:40:23.589Z,73.90
2019-02-16T16:43:04.796Z,76.00
2019-02-16T16:45:41.836Z,77.00
2019-02-16T16:48:35.985Z,78.90
2019-02-16T16:51:29.177Z,80.20
2019-02-16T16:54:08.008Z,81.90
2019-02-16T16:56:53.661Z,83.10
2019-02-16T16:59:40.669Z,84.00
2019-02-16T17:02:36.219Z,85.20
2019-02-16T17:05:18.404Z,86.00
2019-02-16T17:08:04.986Z,87.20
2019-02-16T17:10:44.363Z,88.40
2019-02-16T17:13:30.037Z,89.30
2019-02-16T17:16:17.459Z,89.70
2019-02-16T17:19:13.703Z,90.30
2019-02-16T17:21:56.916Z,90.80
2019-02-16T17:24:42.777Z,91.40
2019-02-16T17:27:28.550Z,91.30
2019-02-16T17:30:10.797Z,91.90
2019-02-16T17:32:56.909Z,92.10
2019-02-16T17:35:41.544Z,92.50
2019-02-16T17:38:21.913Z,92.60
2019-02-16T17:41:17.941Z,92.70
2019-02-16T17:44:19.929Z,93.10
2019-02-16T17:47:13.269Z,93.40
2019-02-16T17:49:51.203Z,93.60
2019-02-16T17:52:38.311Z,93.60
2019-02-16T17:55:13.077Z,94.10
2019-02-16T17:58:00.637Z,94.50
2019-02-16T18:00:53.803Z,94.80
2019-02-16T18:03:40.803Z,95.40
2019-02-16T18:06:17.870Z,95.30
2019-02-16T18:09:04.909Z,95.40
2019-02-16T18:11:43.151Z,95.80
2019-02-16T18:14:30.461Z,95.80
2019-02-16T18:17:20.429Z,95.90
2019-02-16T18:20:12.696Z,96.30
2019-02-16T18:22:58.662Z,96.30
2019-02-16T18:25:35.708Z,96.50
2019-02-16T18:28:25.361Z,96.90
2019-02-16T18:31:05.060Z,97.10
2019-02-16T18:34:07.319Z,97.50
2019-02-16T18:36:51.379Z,97.20
2019-02-16T18:39:37.449Z,96.80
2019-02-16T18:42:30.296Z,96.90
2019-02-16T18:45:26.458Z,97.40
2019-02-16T18:48:22.418Z,98.00
2019-02-16T18:51:07.976Z,98.30
2019-02-16T18:53:59.144Z,98.50
2019-02-16T18:57:06.649Z,98.60
2019-02-16T18:59:50.310Z,98.80
2019-02-16T19:02:35.833Z,98.70
2019-02-16T19:05:20.037Z,98.70
2019-02-16T19:08:09.939Z,98.50
2019-02-16T19:10:49.801Z,98.70
2019-02-16T19:14:11.362Z,98.60
2019-02-16T19:16:53.033Z,99.00
2019-02-16T19:19:28.844Z,99.10
2019-02-16T19:22:07.253Z,99.00
2019-02-16T19:24:57.853Z,98.80
2019-02-16T19:27:35.898Z,98.90
2019-02-16T19:30:21.120Z,98.80
2019-02-16T19:33:08.950Z,99.10
2019-02-16T19:35:56.345Z,99.40
2019-02-16T19:38:52.305Z,99.70
2019-02-16T19:41:45.681Z,99.80
2019-02-16T19:44:35.998Z,99.70
2019-02-16T19:47:23.461Z,99.80
2019-02-16T19:50:01.310Z,99.50
2019-02-16T19:52:38.801Z,99.60
2019-02-16T19:55:25.776Z,99.80
2019-02-16T19:57:59.319Z,99.90
2019-02-16T20:00:49.104Z,99.80
2019-02-16T20:03:36.311Z,99.90
2019-02-16T20:06:13.631Z,99.90
2019-02-16T20:08:59.094Z,99.90
2019-02-16T20:11:49.503Z,99.90
2019-02-16T20:14:39.203Z,99.90
2019-02-16T20:17:24.772Z,99.90
2019-02-16T20:20:23.805Z,99.90
2019-02-16T20:23:22.834Z,99.90
2019-02-16T20:26:12.940Z,99.90
2019-02-16T20:29:01.929Z,99.90
2019-02-16T20:31:48.832Z,99.90
2019-02-16T20:34:31.157Z,99.90
2019-02-16T20:37:12.089Z,99.90
2019-02-16T20:39:49.674Z,99.90
2019-02-16T20:42:40.510Z,99.90
2019-02-16T20:45:21.917Z,99.90
2019-02-16T20:48:11.451Z,99.90
2019-02-16T20:50:45.327Z,99.90
2019-02-16T20:53:25.383Z,99.90
2019-02-16T20:56:18.262Z,99.90
2019-02-16T20:58:53.461Z,99.90
2019-02-16T21:01:37.971Z,99.90
2019-02-16T21:04:14.160Z,99.90
2019-02-16T21:06:58.987Z,99.90
2019-02-16T21:09:44.638Z,99.90
2019-02-16T21:12:37.454Z,99.90
2019-02-16T21:15:52.782Z,99.90
2019-02-16T21:18:45.767Z,99.90
2019-02-16T21:21:41.726Z,99.90
2019-02-16T21:24:26.619Z,99.90
2019-02-16T21:27:25.740Z,99.90
2019-02-16T21:30:19.231Z,99.90
2019-02-16T21:33:12.040Z,99.90
2019-02-16T21:36:05.140Z,99.90
2019-02-16T21:39:03.474Z,99.90
2019-02-16T21:41:49.266Z,99.90
2019-02-16T21:44:38.996Z,99.90
2019-02-16T21:47:28.843Z,99.90
2019-02-16T21:50:14.586Z,99.90
2019-02-16T21:53:20.765Z,99.90
2019-02-16T21:56:16.869Z,99.90
2019-02-16T21:59:03.018Z,99.90
2019-02-16T22:01:41.304Z,99.90
2019-02-16T22:04:36.203Z,99.90
2019-02-16T22:07:30.595Z,99.90
2019-02-16T22:10:23.771Z,99.90
2019-02-16T22:13:06.895Z,99.90
2019-02-16T22:15:36.707Z,99.90
2019-02-16T22:18:04.677Z,99.90
2019-02-16T22:20:32.283Z,99.90
2019-02-16T22:23:00.073Z,99.90
2019-02-16T22:25:28.055Z,99.90
2019-02-16T22:27:55.555Z,99.90
2019-02-16T22:30:23.049Z,99.90
2019-02-16T22:32:50.644Z,99.90
2019-02-16T22:35:18.142Z,99.90
2019-02-16T22:37:45.746Z,99.90
2019-02-16T22:40:13.672Z,99.90
2019-02-16T22:42:41.245Z,99.90
2019-02-16T22:45:08.813Z,99.90
2019-02-16T22:47:36.794Z,99.90
2019-02-16T22:50:06.189Z,99.90
2019-02-16T22:52:33.788Z,99.90
2019-02-16T22:55:01.293Z,99.90
2019-02-16T22:57:29.102Z,99.90
2019-02-16T22:59:56.985Z,99.90
2019-02-16T23:02:24.799Z,99.90
2019-02-16T23:04:52.285Z,99.90
2019-02-16T23:07:19.895Z,99.90
2019-02-16T23:09:47.397Z,99.90
2019-02-16T23:12:14.938Z,99.90
2019-02-16T23:14:42.452Z,99.90
2019-02-16T23:17:10.183Z,99.90
2019-02-16T23:19:38.119Z,99.90
2019-02-16T23:22:07.881Z,99.90
2019-02-16T23:24:35.440Z,99.90
2019-02-16T23:27:03.403Z,99.90
2019-02-16T23:29:31.705Z,99.90
2019-02-16T23:31:59.632Z,99.90
2019-02-16T23:34:27.664Z,99.90
2019-02-16T23:36:55.878Z,99.90
2019-02-16T23:39:23.769Z,99.90
2019-02-16T23:41:51.716Z,99.90
2019-02-16T23:44:19.584Z,99.90
2019-02-16T23:46:47.429Z,99.90
2019-02-16T23:49:15.786Z,99.90
2019-02-16T23:51:44.214Z,99.90
2019-02-16T23:54:11.840Z,99.90
2019-02-16T23:56:39.320Z,99.90
2019-02-16T23:59:06.804Z,99.90
